Cato Island, Australia
Current Conditions -  °F | °C
As of 2:00 PM on Thursday 29 Jan 2015 (Local Time) from YBUD Reporting Station
Broken Clouds Broken Clouds  
Wind Chill: 82°   Ceiling: 7700
Heat Index: 85°   Visibility: 6mi
Dew Point: 68°   Wind: 15mph
Humidity: 62%   Direction: 140°SE
Pressure: 29.71"   Gusts: NA
Location:  23.25°S, 155.53°E
Report Text: YBUD 290400Z AUTO 14013KT 9999 // SCT046 BKN077 28/20 Q1006
Loading
Personal Weather Stations






























Interactive Weather Map New forecast layout! Learn more

10-Day Weather Forecast

Advertisements
Track Severe Weather on mobile